sensor_id;sensor_type;location;lat;lon;timestamp;temperature;humidity
20827;DHT22;10574;52.508;13.236;2023-12-20T00:01:31;6.80;99.90
20827;DHT22;10574;52.508;13.236;2023-12-20T00:03:59;6.80;99.90
20827;DHT22;10574;52.508;13.236;2023-12-20T00:06:27;6.80;99.90
20827;DHT22;10574;52.508;13.236;2023-12-20T00:08:54;6.80;99.90
20827;DHT22;10574;52.508;13.236;2023-12-20T00:11:22;6.80;99.90
20827;DHT22;10574;52.508;13.236;2023-12-20T00:13:50;6.80;99.90
20827;DHT22;10574;52.508;13.236;2023-12-20T00:16:17;6.80;99.90
20827;DHT22;10574;52.508;13.236;2023-12-20T00:18:45;6.80;99.90
20827;DHT22;10574;52.508;13.236;2023-12-20T00:21:13;6.80;99.90
20827;DHT22;10574;52.508;13.236;2023-12-20T00:23:41;6.80;99.90
20827;DHT22;10574;52.508;13.236;2023-12-20T00:26:08;6.80;99.90
20827;DHT22;10574;52.508;13.236;2023-12-20T00:28:36;6.80;99.90
20827;DHT22;10574;52.508;13.236;2023-12-20T00:31:04;6.80;99.90
20827;DHT22;10574;52.508;13.236;2023-12-20T00:33:32;6.80;99.90
20827;DHT22;10574;52.508;13.236;2023-12-20T00:36:00;6.80;99.90
20827;DHT22;10574;52.508;13.236;2023-12-20T00:38:28;6.80;99.90
20827;DHT22;10574;52.508;13.236;2023-12-20T00:40:55;6.80;99.90
20827;DHT22;10574;52.508;13.236;2023-12-20T00:43:23;6.80;99.90
20827;DHT22;10574;52.508;13.236;2023-12-20T00:45:51;6.80;99.90
20827;DHT22;10574;52.508;13.236;2023-12-20T00:48:19;6.80;99.90
20827;DHT22;10574;52.508;13.236;2023-12-20T00:50:46;6.80;99.90
20827;DHT22;10574;52.508;13.236;2023-12-20T00:53:14;6.80;99.90
20827;DHT22;10574;52.508;13.236;2023-12-20T00:55:42;6.80;99.90
20827;DHT22;10574;52.508;13.236;2023-12-20T00:58:11;6.90;99.90
20827;DHT22;10574;52.508;13.236;2023-12-20T01:00:38;6.80;99.90
20827;DHT22;10574;52.508;13.236;2023-12-20T01:03:08;6.80;99.90
20827;DHT22;10574;52.508;13.236;2023-12-20T01:05:36;6.80;99.90
20827;DHT22;10574;52.508;13.236;2023-12-20T01:08:04;6.80;99.90
20827;DHT22;10574;52.508;13.236;2023-12-20T01:10:32;6.90;99.90
20827;DHT22;10574;52.508;13.236;2023-12-20T01:13:00;6.90;99.90
20827;DHT22;10574;52.508;13.236;2023-12-20T01:15:28;6.90;99.90
20827;DHT22;10574;52.508;13.236;2023-12-20T01:17:56;6.90;99.90
20827;DHT22;10574;52.508;13.236;2023-12-20T01:20:25;6.80;99.90
20827;DHT22;10574;52.508;13.236;2023-12-20T01:22:53;6.90;99.90
20827;DHT22;10574;52.508;13.236;2023-12-20T01:25:21;6.80;99.90
20827;DHT22;10574;52.508;13.236;2023-12-20T01:27:48;6.90;99.90
20827;DHT22;10574;52.508;13.236;2023-12-20T01:30:16;6.80;99.90
20827;DHT22;10574;52.508;13.236;2023-12-20T01:32:44;6.90;99.90
20827;DHT22;10574;52.508;13.236;2023-12-20T01:35:12;6.80;99.90
20827;DHT22;10574;52.508;13.236;2023-12-20T01:37:40;6.90;99.90
20827;DHT22;10574;52.508;13.236;2023-12-20T01:40:09;6.90;99.90
20827;DHT22;10574;52.508;13.236;2023-12-20T01:42:36;6.90;99.90
20827;DHT22;10574;52.508;13.236;2023-12-20T01:45:05;6.80;99.90
20827;DHT22;10574;52.508;13.236;2023-12-20T01:47:33;6.90;99.90
20827;DHT22;10574;52.508;13.236;2023-12-20T01:50:01;6.90;99.90
20827;DHT22;10574;52.508;13.236;2023-12-20T01:52:30;6.90;99.90
20827;DHT22;10574;52.508;13.236;2023-12-20T01:54:59;6.90;99.90
20827;DHT22;10574;52.508;13.236;2023-12-20T01:57:29;6.90;99.90
20827;DHT22;10574;52.508;13.236;2023-12-20T01:59:57;6.90;99.90
20827;DHT22;10574;52.508;13.236;2023-12-20T02:02:26;6.90;99.90
20827;DHT22;10574;52.508;13.236;2023-12-20T02:04:55;6.90;99.90
20827;DHT22;10574;52.508;13.236;2023-12-20T02:07:23;7.00;99.90
20827;DHT22;10574;52.508;13.236;2023-12-20T02:09:50;7.00;99.90
20827;DHT22;10574;52.508;13.236;2023-12-20T02:12:19;7.00;99.90
20827;DHT22;10574;52.508;13.236;2023-12-20T02:14:47;7.00;99.90
20827;DHT22;10574;52.508;13.236;2023-12-20T02:17:16;7.00;99.90
20827;DHT22;10574;52.508;13.236;2023-12-20T02:19:44;7.00;99.90
20827;DHT22;10574;52.508;13.236;2023-12-20T02:22:14;7.00;99.90
20827;DHT22;10574;52.508;13.236;2023-12-20T02:25:01;6.90;99.90
20827;DHT22;10574;52.508;13.236;2023-12-20T02:27:29;6.90;99.90
20827;DHT22;10574;52.508;13.236;2023-12-20T02:29:58;6.90;99.90
20827;DHT22;10574;52.508;13.236;2023-12-20T02:32:26;6.90;99.90
20827;DHT22;10574;52.508;13.236;2023-12-20T02:34:54;6.90;99.90
20827;DHT22;10574;52.508;13.236;2023-12-20T02:37:23;6.90;99.90
20827;DHT22;10574;52.508;13.236;2023-12-20T02:39:50;6.90;99.90
20827;DHT22;10574;52.508;13.236;2023-12-20T02:42:18;6.90;99.90
20827;DHT22;10574;52.508;13.236;2023-12-20T02:44:46;6.90;99.90
20827;DHT22;10574;52.508;13.236;2023-12-20T02:47:14;6.90;99.90
20827;DHT22;10574;52.508;13.236;2023-12-20T02:49:42;6.90;99.90
20827;DHT22;10574;52.508;13.236;2023-12-20T02:52:10;6.90;99.90
20827;DHT22;10574;52.508;13.236;2023-12-20T02:54:37;6.80;99.90
20827;DHT22;10574;52.508;13.236;2023-12-20T02:57:05;6.90;99.90
20827;DHT22;10574;52.508;13.236;2023-12-20T02:59:33;6.80;99.90
20827;DHT22;10574;52.508;13.236;2023-12-20T03:02:01;6.80;99.90
20827;DHT22;10574;52.508;13.236;2023-12-20T03:04:29;6.80;99.90
20827;DHT22;10574;52.508;13.236;2023-12-20T03:06:57;6.80;99.90
20827;DHT22;10574;52.508;13.236;2023-12-20T03:09:24;6.90;99.90
20827;DHT22;10574;52.508;13.236;2023-12-20T03:11:52;6.90;99.90
20827;DHT22;10574;52.508;13.236;2023-12-20T03:14:20;6.90;99.90
20827;DHT22;10574;52.508;13.236;2023-12-20T03:16:49;6.90;99.90
20827;DHT22;10574;52.508;13.236;2023-12-20T03:19:18;6.80;99.90
20827;DHT22;10574;52.508;13.236;2023-12-20T03:21:46;6.80;99.90
20827;DHT22;10574;52.508;13.236;2023-12-20T03:24:14;6.80;99.90
20827;DHT22;10574;52.508;13.236;2023-12-20T03:26:42;6.80;99.90
20827;DHT22;10574;52.508;13.236;2023-12-20T03:29:09;6.80;99.90
20827;DHT22;10574;52.508;13.236;2023-12-20T03:31:37;6.80;99.90
20827;DHT22;10574;52.508;13.236;2023-12-20T03:34:05;6.80;99.90
20827;DHT22;10574;52.508;13.236;2023-12-20T03:36:33;6.80;99.90
20827;DHT22;10574;52.508;13.236;2023-12-20T03:39:00;6.80;99.90
20827;DHT22;10574;52.508;13.236;2023-12-20T03:41:30;6.80;99.90
20827;DHT22;10574;52.508;13.236;2023-12-20T03:43:58;6.80;99.90
20827;DHT22;10574;52.508;13.236;2023-12-20T03:46:25;6.70;99.90
20827;DHT22;10574;52.508;13.236;2023-12-20T03:48:53;6.70;99.90
20827;DHT22;10574;52.508;13.236;2023-12-20T03:51:21;6.70;99.90
20827;DHT22;10574;52.508;13.236;2023-12-20T03:53:49;6.70;99.90
20827;DHT22;10574;52.508;13.236;2023-12-20T03:56:17;6.70;99.90
20827;DHT22;10574;52.508;13.236;2023-12-20T03:58:44;6.70;99.90
20827;DHT22;10574;52.508;13.236;2023-12-20T04:01:12;6.70;99.90
20827;DHT22;10574;52.508;13.236;2023-12-20T04:03:40;6.70;99.90
20827;DHT22;10574;52.508;13.236;2023-12-20T04:06:08;6.70;99.90
20827;DHT22;10574;52.508;13.236;2023-12-20T04:08:36;6.70;99.90
20827;DHT22;10574;52.508;13.236;2023-12-20T04:11:04;6.60;99.90
20827;DHT22;10574;52.508;13.236;2023-12-20T04:13:31;6.60;99.90
20827;DHT22;10574;52.508;13.236;2023-12-20T04:15:59;6.60;99.90
20827;DHT22;10574;52.508;13.236;2023-12-20T04:18:27;6.60;99.90
20827;DHT22;10574;52.508;13.236;2023-12-20T04:20:55;6.60;99.90
20827;DHT22;10574;52.508;13.236;2023-12-20T04:23:22;6.50;99.90
20827;DHT22;10574;52.508;13.236;2023-12-20T04:25:50;6.40;99.90
20827;DHT22;10574;52.508;13.236;2023-12-20T04:28:18;6.40;99.90
20827;DHT22;10574;52.508;13.236;2023-12-20T04:30:45;6.40;99.90
20827;DHT22;10574;52.508;13.236;2023-12-20T04:33:13;6.30;99.90
20827;DHT22;10574;52.508;13.236;2023-12-20T04:35:41;6.20;99.90
20827;DHT22;10574;52.508;13.236;2023-12-20T04:38:09;6.20;99.90
20827;DHT22;10574;52.508;13.236;2023-12-20T04:40:37;6.20;99.90
20827;DHT22;10574;52.508;13.236;2023-12-20T04:43:07;6.20;99.90
20827;DHT22;10574;52.508;13.236;2023-12-20T04:45:35;6.20;99.90
20827;DHT22;10574;52.508;13.236;2023-12-20T04:48:03;6.10;99.90
20827;DHT22;10574;52.508;13.236;2023-12-20T04:50:31;6.10;99.90
20827;DHT22;10574;52.508;13.236;2023-12-20T04:52:59;6.10;99.90
20827;DHT22;10574;52.508;13.236;2023-12-20T04:55:27;6.00;99.90
20827;DHT22;10574;52.508;13.236;2023-12-20T04:57:55;5.90;99.90
20827;DHT22;10574;52.508;13.236;2023-12-20T05:00:23;6.00;99.90
20827;DHT22;10574;52.508;13.236;2023-12-20T05:02:51;5.90;99.90
20827;DHT22;10574;52.508;13.236;2023-12-20T05:05:19;5.90;99.90
20827;DHT22;10574;52.508;13.236;2023-12-20T05:07:47;5.90;99.90
20827;DHT22;10574;52.508;13.236;2023-12-20T05:10:14;5.90;99.90
20827;DHT22;10574;52.508;13.236;2023-12-20T05:12:42;5.90;99.90
20827;DHT22;10574;52.508;13.236;2023-12-20T05:15:10;5.90;99.90
20827;DHT22;10574;52.508;13.236;2023-12-20T05:17:37;5.80;99.90
20827;DHT22;10574;52.508;13.236;2023-12-20T05:20:06;5.80;99.90
20827;DHT22;10574;52.508;13.236;2023-12-20T05:22:34;5.70;99.90
20827;DHT22;10574;52.508;13.236;2023-12-20T05:25:02;5.70;99.90
20827;DHT22;10574;52.508;13.236;2023-12-20T05:27:31;5.60;99.90
20827;DHT22;10574;52.508;13.236;2023-12-20T05:29:58;5.60;99.90
20827;DHT22;10574;52.508;13.236;2023-12-20T05:32:26;5.60;99.90
20827;DHT22;10574;52.508;13.236;2023-12-20T05:34:54;5.60;99.90
20827;DHT22;10574;52.508;13.236;2023-12-20T05:37:22;5.60;99.90
20827;DHT22;10574;52.508;13.236;2023-12-20T05:39:49;5.50;99.90
20827;DHT22;10574;52.508;13.236;2023-12-20T05:42:17;5.50;99.90
20827;DHT22;10574;52.508;13.236;2023-12-20T05:44:45;5.40;99.90
20827;DHT22;10574;52.508;13.236;2023-12-20T05:47:14;5.40;99.90
20827;DHT22;10574;52.508;13.236;2023-12-20T05:49:43;5.30;99.90
20827;DHT22;10574;52.508;13.236;2023-12-20T05:52:11;5.30;99.90
20827;DHT22;10574;52.508;13.236;2023-12-20T05:54:39;5.20;99.90
20827;DHT22;10574;52.508;13.236;2023-12-20T05:57:07;5.20;99.90
20827;DHT22;10574;52.508;13.236;2023-12-20T05:59:34;5.20;99.90
20827;DHT22;10574;52.508;13.236;2023-12-20T06:02:03;5.20;99.90
20827;DHT22;10574;52.508;13.236;2023-12-20T06:04:31;5.20;99.90
20827;DHT22;10574;52.508;13.236;2023-12-20T06:06:59;5.20;99.90
20827;DHT22;10574;52.508;13.236;2023-12-20T06:09:27;5.20;99.90
20827;DHT22;10574;52.508;13.236;2023-12-20T06:11:55;5.10;99.90
20827;DHT22;10574;52.508;13.236;2023-12-20T06:14:23;5.10;99.90
20827;DHT22;10574;52.508;13.236;2023-12-20T06:16:53;5.00;99.90
20827;DHT22;10574;52.508;13.236;2023-12-20T06:19:20;5.00;99.90
20827;DHT22;10574;52.508;13.236;2023-12-20T06:21:48;5.00;99.90
20827;DHT22;10574;52.508;13.236;2023-12-20T06:24:16;5.00;99.90
20827;DHT22;10574;52.508;13.236;2023-12-20T06:26:44;5.00;99.90
20827;DHT22;10574;52.508;13.236;2023-12-20T06:29:12;4.90;99.90
20827;DHT22;10574;52.508;13.236;2023-12-20T06:31:39;5.00;99.90
20827;DHT22;10574;52.508;13.236;2023-12-20T06:34:07;5.00;99.90
20827;DHT22;10574;52.508;13.236;2023-12-20T06:36:35;5.00;99.90
20827;DHT22;10574;52.508;13.236;2023-12-20T06:39:03;5.10;99.90
20827;DHT22;10574;52.508;13.236;2023-12-20T06:41:31;5.00;99.90
20827;DHT22;10574;52.508;13.236;2023-12-20T06:43:59;5.00;99.90
20827;DHT22;10574;52.508;13.236;2023-12-20T06:46:27;5.00;99.90
20827;DHT22;10574;52.508;13.236;2023-12-20T06:48:55;5.00;99.90
20827;DHT22;10574;52.508;13.236;2023-12-20T06:51:23;5.10;99.90
20827;DHT22;10574;52.508;13.236;2023-12-20T06:53:52;5.10;99.90
20827;DHT22;10574;52.508;13.236;2023-12-20T06:56:20;5.10;99.90
20827;DHT22;10574;52.508;13.236;2023-12-20T06:58:48;5.20;99.90
20827;DHT22;10574;52.508;13.236;2023-12-20T07:01:16;5.20;99.90
20827;DHT22;10574;52.508;13.236;2023-12-20T07:03:46;5.20;99.90
20827;DHT22;10574;52.508;13.236;2023-12-20T07:06:14;5.20;99.90
20827;DHT22;10574;52.508;13.236;2023-12-20T07:08:43;5.20;99.90
20827;DHT22;10574;52.508;13.236;2023-12-20T07:11:11;5.30;99.90
20827;DHT22;10574;52.508;13.236;2023-12-20T07:13:39;5.30;99.90
20827;DHT22;10574;52.508;13.236;2023-12-20T07:16:06;5.30;99.90
20827;DHT22;10574;52.508;13.236;2023-12-20T07:18:34;5.30;99.90
20827;DHT22;10574;52.508;13.236;2023-12-20T07:21:02;5.30;99.90
20827;DHT22;10574;52.508;13.236;2023-12-20T07:23:30;5.30;99.90
20827;DHT22;10574;52.508;13.236;2023-12-20T07:25:58;5.30;99.90
20827;DHT22;10574;52.508;13.236;2023-12-20T07:28:27;5.30;99.90
20827;DHT22;10574;52.508;13.236;2023-12-20T07:30:54;5.30;99.90
20827;DHT22;10574;52.508;13.236;2023-12-20T07:33:22;5.40;99.90
20827;DHT22;10574;52.508;13.236;2023-12-20T07:35:50;5.40;99.90
20827;DHT22;10574;52.508;13.236;2023-12-20T07:38:18;5.40;99.90
20827;DHT22;10574;52.508;13.236;2023-12-20T07:40:46;5.40;99.90
20827;DHT22;10574;52.508;13.236;2023-12-20T07:43:14;5.40;99.90
20827;DHT22;10574;52.508;13.236;2023-12-20T07:45:43;5.40;99.90
20827;DHT22;10574;52.508;13.236;2023-12-20T07:48:11;5.40;99.90
20827;DHT22;10574;52.508;13.236;2023-12-20T07:50:39;5.40;99.90
20827;DHT22;10574;52.508;13.236;2023-12-20T07:53:07;5.40;99.90
20827;DHT22;10574;52.508;13.236;2023-12-20T07:55:35;5.40;99.90
20827;DHT22;10574;52.508;13.236;2023-12-20T07:58:03;5.40;99.90
20827;DHT22;10574;52.508;13.236;2023-12-20T08:00:31;5.40;99.90
20827;DHT22;10574;52.508;13.236;2023-12-20T08:02:59;5.40;99.90
20827;DHT22;10574;52.508;13.236;2023-12-20T08:05:29;5.40;99.90
20827;DHT22;10574;52.508;13.236;2023-12-20T08:07:57;5.40;99.90
20827;DHT22;10574;52.508;13.236;2023-12-20T08:10:25;5.50;99.90
20827;DHT22;10574;52.508;13.236;2023-12-20T08:12:54;5.40;99.90
20827;DHT22;10574;52.508;13.236;2023-12-20T08:15:22;5.40;99.90
20827;DHT22;10574;52.508;13.236;2023-12-20T08:17:50;5.40;99.90
20827;DHT22;10574;52.508;13.236;2023-12-20T08:20:18;5.40;99.90
20827;DHT22;10574;52.508;13.236;2023-12-20T08:22:46;5.50;99.90
20827;DHT22;10574;52.508;13.236;2023-12-20T08:25:14;5.50;99.90
20827;DHT22;10574;52.508;13.236;2023-12-20T08:27:42;5.50;99.90
20827;DHT22;10574;52.508;13.236;2023-12-20T08:30:10;5.50;99.90
20827;DHT22;10574;52.508;13.236;2023-12-20T08:32:39;5.50;99.90
20827;DHT22;10574;52.508;13.236;2023-12-20T08:35:07;5.50;99.90
20827;DHT22;10574;52.508;13.236;2023-12-20T08:37:35;5.60;99.90
20827;DHT22;10574;52.508;13.236;2023-12-20T08:40:04;5.60;99.90
20827;DHT22;10574;52.508;13.236;2023-12-20T08:42:32;5.60;99.90
20827;DHT22;10574;52.508;13.236;2023-12-20T08:45:00;5.70;99.90
20827;DHT22;10574;52.508;13.236;2023-12-20T08:47:30;5.70;99.90
20827;DHT22;10574;52.508;13.236;2023-12-20T08:49:57;5.70;99.90
20827;DHT22;10574;52.508;13.236;2023-12-20T08:52:26;5.80;99.90
20827;DHT22;10574;52.508;13.236;2023-12-20T08:54:57;5.70;99.90
20827;DHT22;10574;52.508;13.236;2023-12-20T08:57:25;5.70;99.90
20827;DHT22;10574;52.508;13.236;2023-12-20T08:59:53;5.80;99.90
20827;DHT22;10574;52.508;13.236;2023-12-20T09:02:21;5.80;99.90
20827;DHT22;10574;52.508;13.236;2023-12-20T09:04:49;5.90;99.90
20827;DHT22;10574;52.508;13.236;2023-12-20T09:07:24;5.90;99.90
20827;DHT22;10574;52.508;13.236;2023-12-20T09:09:53;5.90;99.90
20827;DHT22;10574;52.508;13.236;2023-12-20T09:12:21;6.00;99.90
20827;DHT22;10574;52.508;13.236;2023-12-20T09:14:51;6.00;99.90
20827;DHT22;10574;52.508;13.236;2023-12-20T09:17:19;6.00;99.90
20827;DHT22;10574;52.508;13.236;2023-12-20T09:19:48;6.00;99.90
20827;DHT22;10574;52.508;13.236;2023-12-20T09:22:18;6.00;99.90
20827;DHT22;10574;52.508;13.236;2023-12-20T09:24:46;6.10;99.90
20827;DHT22;10574;52.508;13.236;2023-12-20T09:27:14;6.10;99.90
20827;DHT22;10574;52.508;13.236;2023-12-20T09:29:43;6.10;99.90
20827;DHT22;10574;52.508;13.236;2023-12-20T09:32:11;6.10;99.90
20827;DHT22;10574;52.508;13.236;2023-12-20T09:34:39;6.20;99.90
20827;DHT22;10574;52.508;13.236;2023-12-20T09:37:08;6.30;99.90
20827;DHT22;10574;52.508;13.236;2023-12-20T09:39:36;6.30;99.90
20827;DHT22;10574;52.508;13.236;2023-12-20T09:42:05;6.30;99.90
20827;DHT22;10574;52.508;13.236;2023-12-20T09:44:34;6.30;99.90
20827;DHT22;10574;52.508;13.236;2023-12-20T09:47:03;6.30;99.90
20827;DHT22;10574;52.508;13.236;2023-12-20T09:49:33;6.30;99.90
20827;DHT22;10574;52.508;13.236;2023-12-20T09:52:01;6.30;99.90
20827;DHT22;10574;52.508;13.236;2023-12-20T09:54:29;6.30;99.90
20827;DHT22;10574;52.508;13.236;2023-12-20T09:56:57;6.30;99.90
20827;DHT22;10574;52.508;13.236;2023-12-20T09:59:26;6.30;99.90
20827;DHT22;10574;52.508;13.236;2023-12-20T10:01:56;6.30;99.90
20827;DHT22;10574;52.508;13.236;2023-12-20T10:04:24;6.30;99.90
20827;DHT22;10574;52.508;13.236;2023-12-20T10:06:52;6.40;99.90
20827;DHT22;10574;52.508;13.236;2023-12-20T10:09:20;6.40;99.90
20827;DHT22;10574;52.508;13.236;2023-12-20T10:11:48;6.40;99.90
20827;DHT22;10574;52.508;13.236;2023-12-20T10:14:16;6.40;99.90
20827;DHT22;10574;52.508;13.236;2023-12-20T10:16:45;6.40;99.90
20827;DHT22;10574;52.508;13.236;2023-12-20T10:19:16;6.40;99.90
20827;DHT22;10574;52.508;13.236;2023-12-20T10:21:44;6.40;99.90
20827;DHT22;10574;52.508;13.236;2023-12-20T10:24:17;6.40;99.90
20827;DHT22;10574;52.508;13.236;2023-12-20T10:26:45;6.40;99.90
20827;DHT22;10574;52.508;13.236;2023-12-20T10:29:13;6.40;99.90
20827;DHT22;10574;52.508;13.236;2023-12-20T10:31:41;6.40;99.90
20827;DHT22;10574;52.508;13.236;2023-12-20T10:34:11;6.40;99.90
20827;DHT22;10574;52.508;13.236;2023-12-20T10:36:39;6.50;99.90
20827;DHT22;10574;52.508;13.236;2023-12-20T10:39:08;6.50;99.90
20827;DHT22;10574;52.508;13.236;2023-12-20T10:41:38;6.50;99.90
20827;DHT22;10574;52.508;13.236;2023-12-20T10:44:09;6.50;99.90
20827;DHT22;10574;52.508;13.236;2023-12-20T10:49:19;6.60;99.90
20827;DHT22;10574;52.508;13.236;2023-12-20T10:51:48;6.60;99.90
20827;DHT22;10574;52.508;13.236;2023-12-20T10:54:16;6.60;99.90
20827;DHT22;10574;52.508;13.236;2023-12-20T10:56:44;6.60;99.90
20827;DHT22;10574;52.508;13.236;2023-12-20T10:59:13;6.60;99.90
20827;DHT22;10574;52.508;13.236;2023-12-20T11:01:43;6.60;99.90
20827;DHT22;10574;52.508;13.236;2023-12-20T11:04:13;6.60;99.90
20827;DHT22;10574;52.508;13.236;2023-12-20T11:06:59;6.60;99.90
20827;DHT22;10574;52.508;13.236;2023-12-20T11:09:31;6.60;99.90
20827;DHT22;10574;52.508;13.236;2023-12-20T11:12:27;6.60;99.90
20827;DHT22;10574;52.508;13.236;2023-12-20T11:14:54;6.50;99.90
20827;DHT22;10574;52.508;13.236;2023-12-20T11:17:27;6.50;99.90
20827;DHT22;10574;52.508;13.236;2023-12-20T11:22:31;6.40;99.90
20827;DHT22;10574;52.508;13.236;2023-12-20T11:25:10;6.40;99.90
20827;DHT22;10574;52.508;13.236;2023-12-20T11:27:42;6.40;99.90
20827;DHT22;10574;52.508;13.236;2023-12-20T11:30:13;6.50;99.90
20827;DHT22;10574;52.508;13.236;2023-12-20T11:32:42;6.50;99.90
20827;DHT22;10574;52.508;13.236;2023-12-20T11:37:43;6.40;99.90
20827;DHT22;10574;52.508;13.236;2023-12-20T11:40:17;6.40;99.90
20827;DHT22;10574;52.508;13.236;2023-12-20T11:42:51;6.50;99.90
20827;DHT22;10574;52.508;13.236;2023-12-20T11:45:18;6.50;99.90
20827;DHT22;10574;52.508;13.236;2023-12-20T11:47:49;6.50;99.90
20827;DHT22;10574;52.508;13.236;2023-12-20T11:50:19;6.50;99.90
20827;DHT22;10574;52.508;13.236;2023-12-20T11:52:48;6.50;99.90
20827;DHT22;10574;52.508;13.236;2023-12-20T11:55:16;6.50;99.90
20827;DHT22;10574;52.508;13.236;2023-12-20T11:57:44;6.50;99.90
20827;DHT22;10574;52.508;13.236;2023-12-20T12:00:13;6.50;99.90
20827;DHT22;10574;52.508;13.236;2023-12-20T12:02:42;6.50;99.90
20827;DHT22;10574;52.508;13.236;2023-12-20T12:05:09;6.50;99.90
20827;DHT22;10574;52.508;13.236;2023-12-20T12:07:37;6.50;99.90
20827;DHT22;10574;52.508;13.236;2023-12-20T12:10:07;6.50;99.90
20827;DHT22;10574;52.508;13.236;2023-12-20T12:12:35;6.60;99.90
20827;DHT22;10574;52.508;13.236;2023-12-20T12:15:03;6.60;99.90
20827;DHT22;10574;52.508;13.236;2023-12-20T12:17:32;6.60;99.90
20827;DHT22;10574;52.508;13.236;2023-12-20T12:20:04;6.60;99.90
20827;DHT22;10574;52.508;13.236;2023-12-20T12:22:32;6.70;99.90
20827;DHT22;10574;52.508;13.236;2023-12-20T12:25:09;6.70;99.90
20827;DHT22;10574;52.508;13.236;2023-12-20T12:27:30;6.70;99.90
20827;DHT22;10574;52.508;13.236;2023-12-20T12:30:03;6.70;99.90
20827;DHT22;10574;52.508;13.236;2023-12-20T12:32:31;6.60;99.90
20827;DHT22;10574;52.508;13.236;2023-12-20T12:34:59;6.50;99.90
20827;DHT22;10574;52.508;13.236;2023-12-20T12:37:27;6.40;99.90
20827;DHT22;10574;52.508;13.236;2023-12-20T12:39:55;6.40;99.90
20827;DHT22;10574;52.508;13.236;2023-12-20T12:42:23;6.30;99.90
20827;DHT22;10574;52.508;13.236;2023-12-20T12:44:52;6.30;99.90
20827;DHT22;10574;52.508;13.236;2023-12-20T12:47:21;6.30;99.90
20827;DHT22;10574;52.508;13.236;2023-12-20T12:49:51;6.30;99.90
20827;DHT22;10574;52.508;13.236;2023-12-20T12:52:20;6.30;99.90
20827;DHT22;10574;52.508;13.236;2023-12-20T12:54:49;6.30;99.90
20827;DHT22;10574;52.508;13.236;2023-12-20T12:57:17;6.30;99.90
20827;DHT22;10574;52.508;13.236;2023-12-20T12:59:46;6.30;99.90
20827;DHT22;10574;52.508;13.236;2023-12-20T13:02:14;6.30;99.90
20827;DHT22;10574;52.508;13.236;2023-12-20T13:04:42;6.30;99.90
20827;DHT22;10574;52.508;13.236;2023-12-20T13:07:10;6.30;99.90
20827;DHT22;10574;52.508;13.236;2023-12-20T13:09:46;6.30;99.90
20827;DHT22;10574;52.508;13.236;2023-12-20T13:12:13;6.30;99.90
20827;DHT22;10574;52.508;13.236;2023-12-20T13:14:41;6.30;99.90
20827;DHT22;10574;52.508;13.236;2023-12-20T13:17:09;6.30;99.90
20827;DHT22;10574;52.508;13.236;2023-12-20T13:19:37;6.30;99.90
20827;DHT22;10574;52.508;13.236;2023-12-20T13:22:04;6.30;99.90
20827;DHT22;10574;52.508;13.236;2023-12-20T13:24:33;6.20;99.90
20827;DHT22;10574;52.508;13.236;2023-12-20T13:27:01;5.90;99.90
20827;DHT22;10574;52.508;13.236;2023-12-20T13:29:28;5.80;99.90
20827;DHT22;10574;52.508;13.236;2023-12-20T13:31:56;5.70;99.90
20827;DHT22;10574;52.508;13.236;2023-12-20T13:34:24;5.60;99.90
20827;DHT22;10574;52.508;13.236;2023-12-20T13:36:52;5.50;99.90
20827;DHT22;10574;52.508;13.236;2023-12-20T13:39:20;5.50;99.90
20827;DHT22;10574;52.508;13.236;2023-12-20T13:41:49;5.40;99.90
20827;DHT22;10574;52.508;13.236;2023-12-20T13:44:16;5.40;99.90
20827;DHT22;10574;52.508;13.236;2023-12-20T13:46:44;5.40;99.90
20827;DHT22;10574;52.508;13.236;2023-12-20T13:49:13;5.40;99.90
20827;DHT22;10574;52.508;13.236;2023-12-20T13:51:41;5.40;99.90
20827;DHT22;10574;52.508;13.236;2023-12-20T13:54:09;5.40;99.90
20827;DHT22;10574;52.508;13.236;2023-12-20T13:56:37;5.40;99.90
20827;DHT22;10574;52.508;13.236;2023-12-20T13:59:05;5.40;99.90
20827;DHT22;10574;52.508;13.236;2023-12-20T14:01:33;5.40;99.90
20827;DHT22;10574;52.508;13.236;2023-12-20T14:04:02;5.40;99.90
20827;DHT22;10574;52.508;13.236;2023-12-20T14:06:31;5.30;99.90
20827;DHT22;10574;52.508;13.236;2023-12-20T14:08:59;5.30;99.90
20827;DHT22;10574;52.508;13.236;2023-12-20T14:11:27;5.30;99.90
20827;DHT22;10574;52.508;13.236;2023-12-20T14:13:55;5.20;99.90
20827;DHT22;10574;52.508;13.236;2023-12-20T14:16:24;5.20;99.90
20827;DHT22;10574;52.508;13.236;2023-12-20T14:18:52;5.10;99.90
20827;DHT22;10574;52.508;13.236;2023-12-20T14:21:22;5.10;99.90
20827;DHT22;10574;52.508;13.236;2023-12-20T14:23:50;5.10;99.90
20827;DHT22;10574;52.508;13.236;2023-12-20T14:26:18;5.00;99.90
20827;DHT22;10574;52.508;13.236;2023-12-20T14:28:48;5.00;99.90
20827;DHT22;10574;52.508;13.236;2023-12-20T14:31:16;5.00;99.90
20827;DHT22;10574;52.508;13.236;2023-12-20T14:33:44;5.00;99.90
20827;DHT22;10574;52.508;13.236;2023-12-20T14:36:12;5.10;99.90
20827;DHT22;10574;52.508;13.236;2023-12-20T14:38:40;5.10;99.90
20827;DHT22;10574;52.508;13.236;2023-12-20T14:41:08;5.10;99.90
20827;DHT22;10574;52.508;13.236;2023-12-20T14:43:36;5.10;99.90
20827;DHT22;10574;52.508;13.236;2023-12-20T14:46:04;5.10;99.90
20827;DHT22;10574;52.508;13.236;2023-12-20T14:48:32;5.20;99.90
20827;DHT22;10574;52.508;13.236;2023-12-20T14:51:00;5.20;99.90
20827;DHT22;10574;52.508;13.236;2023-12-20T14:53:29;5.10;99.90
20827;DHT22;10574;52.508;13.236;2023-12-20T14:55:57;5.10;99.90
20827;DHT22;10574;52.508;13.236;2023-12-20T14:58:24;5.10;99.90
20827;DHT22;10574;52.508;13.236;2023-12-20T15:00:53;5.10;99.90
20827;DHT22;10574;52.508;13.236;2023-12-20T15:03:22;5.10;99.90
20827;DHT22;10574;52.508;13.236;2023-12-20T15:05:50;5.10;99.90
20827;DHT22;10574;52.508;13.236;2023-12-20T15:08:18;5.10;99.90
20827;DHT22;10574;52.508;13.236;2023-12-20T15:10:45;5.10;99.90
20827;DHT22;10574;52.508;13.236;2023-12-20T15:13:13;5.20;99.90
20827;DHT22;10574;52.508;13.236;2023-12-20T15:15:41;5.10;99.90
20827;DHT22;10574;52.508;13.236;2023-12-20T15:18:09;5.10;99.90
20827;DHT22;10574;52.508;13.236;2023-12-20T15:20:36;5.10;99.90
20827;DHT22;10574;52.508;13.236;2023-12-20T15:23:05;5.10;99.90
20827;DHT22;10574;52.508;13.236;2023-12-20T15:25:34;5.10;99.90
20827;DHT22;10574;52.508;13.236;2023-12-20T15:28:03;5.00;99.90
20827;DHT22;10574;52.508;13.236;2023-12-20T15:30:31;5.00;99.90
20827;DHT22;10574;52.508;13.236;2023-12-20T15:33:00;5.00;99.90
20827;DHT22;10574;52.508;13.236;2023-12-20T15:35:29;4.90;99.90
20827;DHT22;10574;52.508;13.236;2023-12-20T15:37:57;4.90;99.90
20827;DHT22;10574;52.508;13.236;2023-12-20T15:40:25;4.90;99.90
20827;DHT22;10574;52.508;13.236;2023-12-20T15:42:53;4.90;99.90
20827;DHT22;10574;52.508;13.236;2023-12-20T15:45:22;4.80;99.90